Suipacha, Argentina
Current Conditions -  °F | °C
As of 3:00 AM on Sunday 26 Oct 2014 (Local Time) from SAEZ Reporting Station
Clear Clear  
Wind Chill: 75°   Ceiling: Unl
Heat Index: 75°   Visibility: 6mi
Dew Point: 63°   Wind: 5mph
Humidity: 65%   Direction: 30°NNE
Pressure: 29.85"   Gusts: NA
Location:  34.75°S, 59.68°W
Report Text: SAEZ 260600Z 03004KT CAVOK 24/17 Q1011
Loading
Personal Weather Stations






























Interactive Weather Map New forecast layout! Learn more

10-Day Weather Forecast

Advertisements
Track Severe Weather on mobile